createdAt,value
2023-05-21T00:02:37.582Z,14.3
2023-05-21T00:07:43.682Z,14.2
2023-05-21T00:12:48.782Z,14.2
2023-05-21T00:17:54.887Z,14.2
2023-05-21T00:23:00.969Z,14.1
2023-05-21T00:28:07.087Z,14.1
2023-05-21T00:33:12.194Z,14
2023-05-21T00:38:17.306Z,13.9
2023-05-21T00:43:23.423Z,13.7
2023-05-21T00:48:29.495Z,13.7
2023-05-21T00:53:35.596Z,13.7
2023-05-21T00:58:41.680Z,13.7
2023-05-21T01:03:47.778Z,13.8
2023-05-21T01:08:53.884Z,13.8
2023-05-21T01:13:59.970Z,13.8
2023-05-21T01:19:06.060Z,13.8
2023-05-21T01:24:12.163Z,13.8
2023-05-21T01:29:18.258Z,13.7
2023-05-21T01:34:24.355Z,13.6
2023-05-21T01:39:30.472Z,13.6
2023-05-21T01:44:35.581Z,13.7
2023-05-21T01:49:41.671Z,13.7
2023-05-21T01:54:47.762Z,13.7
2023-05-21T01:59:53.852Z,13.7
2023-05-21T02:04:59.971Z,13.6
2023-05-21T02:10:06.063Z,13.6
2023-05-21T02:15:11.190Z,13.6
2023-05-21T02:20:16.275Z,13.7
2023-05-21T02:25:22.397Z,13.7
2023-05-21T02:30:28.486Z,13.7
2023-05-21T02:35:34.573Z,13.7
2023-05-21T02:40:40.671Z,13.7
2023-05-21T02:45:46.786Z,13.7
2023-05-21T02:50:52.878Z,13.8
2023-05-21T02:55:58.967Z,13.8
2023-05-21T03:01:05.050Z,13.7
2023-05-21T03:06:11.178Z,13.7
2023-05-21T03:11:17.247Z,13.7
2023-05-21T03:16:23.335Z,13.7
2023-05-21T03:21:29.442Z,13.6
2023-05-21T03:26:34.556Z,13.5
2023-05-21T03:31:40.664Z,13.6
2023-05-21T03:36:46.758Z,13.6
2023-05-21T03:41:52.873Z,13.5
2023-05-21T03:46:58.951Z,13.6
2023-05-21T03:52:05.041Z,13.6
2023-05-21T03:57:11.147Z,13.6
2023-05-21T04:02:17.245Z,13.7
2023-05-21T04:07:23.326Z,13.7
2023-05-21T04:12:29.428Z,13.8
2023-05-21T04:17:35.548Z,13.8
2023-05-21T04:22:41.617Z,13.9
2023-05-21T04:27:47.719Z,14
2023-05-21T04:32:52.830Z,14.1
2023-05-21T04:37:58.911Z,14.2
2023-05-21T04:43:05.007Z,14.2
2023-05-21T04:48:11.125Z,14.3
2023-05-21T04:53:16.242Z,14.3
2023-05-21T04:58:22.316Z,14.4
2023-05-21T05:03:28.423Z,14.4
2023-05-21T05:08:34.517Z,14.4
2023-05-21T05:13:40.617Z,14.5
2023-05-21T05:18:46.719Z,14.6
2023-05-21T05:23:52.816Z,14.8
2023-05-21T05:28:58.921Z,15
2023-05-21T05:34:05.013Z,15.1
2023-05-21T05:39:11.104Z,15.4
2023-05-21T05:44:17.211Z,15.7
2023-05-21T05:49:23.295Z,15.8
2023-05-21T05:54:29.383Z,16
2023-05-21T05:59:34.503Z,16.2
2023-05-21T06:04:40.590Z,16.3
2023-05-21T06:09:46.681Z,16.4
2023-05-21T06:14:52.786Z,16.6
2023-05-21T06:19:58.888Z,16.6
2023-05-21T06:25:04.979Z,16.7
2023-05-21T06:30:11.084Z,16.8
2023-05-21T06:35:17.165Z,16.8
2023-05-21T06:40:23.275Z,17.1
2023-05-21T06:45:29.358Z,17.2
2023-05-21T06:50:35.462Z,17.4
2023-05-21T06:55:41.537Z,17.6
2023-05-21T07:00:47.654Z,17.6
2023-05-21T07:05:52.747Z,17.7
2023-05-21T07:10:58.844Z,17.9
2023-05-21T07:16:04.960Z,18.3
2023-05-21T07:21:11.034Z,18.5
2023-05-21T07:26:17.142Z,18.8
2023-05-21T07:31:23.218Z,19.1
2023-05-21T07:36:29.313Z,19.4
2023-05-21T07:41:35.424Z,19.6
2023-05-21T07:46:41.533Z,19.9
2023-05-21T07:51:47.624Z,20.2
2023-05-21T07:56:53.724Z,20.5
2023-05-21T08:01:59.819Z,20.8
2023-05-21T08:07:05.901Z,21.2
2023-05-21T08:12:11.014Z,21.5
2023-05-21T08:17:17.110Z,21.8
2023-05-21T08:22:23.211Z,22.2
2023-05-21T08:27:29.299Z,22.6
2023-05-21T08:32:35.410Z,22.9
2023-05-21T08:37:41.497Z,23.2
2023-05-21T08:42:47.592Z,23.8
2023-05-21T08:47:53.704Z,24.2
2023-05-21T08:52:59.829Z,24.8
2023-05-21T08:58:05.905Z,25.7
2023-05-21T09:03:11.973Z,26.3
2023-05-21T09:08:18.072Z,26.7
2023-05-21T09:13:24.162Z,27.3
2023-05-21T09:18:29.282Z,27.5
2023-05-21T09:23:35.439Z,27.7
2023-05-21T09:28:41.473Z,27.9
2023-05-21T09:33:47.563Z,27.2
2023-05-21T09:38:53.782Z,27.3
2023-05-21T09:43:59.766Z,28.2
2023-05-21T09:49:05.862Z,28.8
2023-05-21T09:54:12.001Z,29
2023-05-21T09:59:18.058Z,29.7
2023-05-21T10:04:24.141Z,30.2
2023-05-21T10:09:30.244Z,31.3
2023-05-21T10:14:36.322Z,31.6
2023-05-21T10:19:42.439Z,31.3
2023-05-21T10:24:47.549Z,31
2023-05-21T10:29:53.634Z,31.2
2023-05-21T10:34:59.843Z,30.8
2023-05-21T10:40:05.967Z,32.2
2023-05-21T10:45:11.942Z,32.6
2023-05-21T10:50:18.043Z,33.2
2023-05-21T10:55:24.130Z,32.1
2023-05-21T11:00:30.230Z,32.8
2023-05-21T11:05:36.328Z,32
2023-05-21T11:10:42.424Z,31.8
2023-05-21T11:15:48.514Z,31.8
2023-05-21T11:20:54.630Z,31
2023-05-21T11:26:00.720Z,31.9
2023-05-21T11:31:05.846Z,32.8
2023-05-21T11:36:11.939Z,32.9
2023-05-21T11:41:18.022Z,31.8
2023-05-21T11:46:24.122Z,33
2023-05-21T11:51:30.222Z,33
2023-05-21T11:56:36.316Z,32.6
2023-05-21T12:01:42.415Z,30.4
2023-05-21T12:06:48.511Z,31.3
2023-05-21T12:11:54.629Z,30.8
2023-05-21T12:17:00.708Z,30.4
2023-05-21T12:22:06.821Z,29.8
2023-05-21T12:27:12.911Z,29.4
2023-05-21T12:32:19.009Z,29.1
2023-05-21T12:37:24.154Z,28.5
2023-05-21T12:42:30.211Z,27.9
2023-05-21T12:47:36.298Z,30.2
2023-05-21T12:52:42.565Z,31.3
2023-05-21T12:57:48.496Z,29.3
2023-05-21T13:02:54.604Z,29
2023-05-21T13:08:00.695Z,28.3
2023-05-21T13:13:06.796Z,28.3
2023-05-21T13:18:12.900Z,28.6
2023-05-21T13:23:19.029Z,29.4
2023-05-21T13:28:25.089Z,28.8
2023-05-21T13:33:31.213Z,28.9
2023-05-21T13:38:37.267Z,28.8
2023-05-21T13:43:42.401Z,28.6
2023-05-21T13:48:48.531Z,28.8
2023-05-21T13:53:54.568Z,28.8
2023-05-21T13:59:00.682Z,29.3
2023-05-21T14:04:06.788Z,29.6
2023-05-21T14:09:12.848Z,30.7
2023-05-21T14:14:18.972Z,31.2
2023-05-21T14:19:25.058Z,31.5
2023-05-21T14:24:31.157Z,32.1
2023-05-21T14:29:37.289Z,32.2
2023-05-21T14:34:43.339Z,31.6
2023-05-21T14:39:49.449Z,30.6
2023-05-21T14:44:55.556Z,29.3
2023-05-21T14:50:00.666Z,28.8
2023-05-21T14:55:06.751Z,28.5
2023-05-21T15:00:12.839Z,28.1
2023-05-21T15:05:18.953Z,28.2
2023-05-21T15:10:25.040Z,27.9
2023-05-21T15:15:31.129Z,28
2023-05-21T15:20:37.218Z,27.8
2023-05-21T15:25:43.308Z,27.6
2023-05-21T15:30:49.515Z,27.6
2023-05-21T15:35:55.523Z,27.6
2023-05-21T15:41:01.694Z,27.4
2023-05-21T15:46:07.718Z,27.2
2023-05-21T15:51:13.817Z,27.1
2023-05-21T15:56:18.986Z,27
2023-05-21T16:01:25.028Z,26.8
2023-05-21T16:06:31.111Z,26.8
2023-05-21T16:11:37.218Z,26.5
2023-05-21T16:16:43.310Z,26.5
2023-05-21T16:21:49.401Z,26.3
2023-05-21T16:26:55.494Z,26.2
2023-05-21T16:32:01.611Z,26.1
2023-05-21T16:37:07.690Z,26
2023-05-21T16:42:13.784Z,25.9
2023-05-21T16:47:19.888Z,25.9
2023-05-21T16:52:25.984Z,25.8
2023-05-21T16:57:32.144Z,25.8
2023-05-21T17:02:37.185Z,25.8
2023-05-21T17:07:43.287Z,25.7
2023-05-21T17:12:49.425Z,25.6
2023-05-21T17:17:55.465Z,25.4
2023-05-21T17:23:01.557Z,25.3
2023-05-21T17:28:07.664Z,25
2023-05-21T17:33:13.766Z,24.9
2023-05-21T17:38:19.864Z,24.9
2023-05-21T17:43:25.937Z,24.8
2023-05-21T17:48:32.024Z,24.7
2023-05-21T17:53:38.152Z,24.7
2023-05-21T17:58:44.233Z,24.6
2023-05-21T18:03:50.320Z,24.4
2023-05-21T18:08:55.431Z,24.1
2023-05-21T18:14:01.672Z,23.8
2023-05-21T18:19:07.636Z,23.4
2023-05-21T18:24:13.711Z,23.3
2023-05-21T18:29:19.828Z,23.2
2023-05-21T18:34:25.917Z,23
2023-05-21T18:39:32.025Z,22.7
2023-05-21T18:44:38.098Z,22.5
2023-05-21T18:49:44.343Z,22.2
2023-05-21T18:54:50.368Z,22
2023-05-21T18:59:56.458Z,21.8
2023-05-21T19:05:02.494Z,21.6
2023-05-21T19:10:08.571Z,21.5
2023-05-21T19:15:13.693Z,21.4
2023-05-21T19:20:19.868Z,21.3
2023-05-21T19:25:25.867Z,21.2
2023-05-21T19:30:31.983Z,21.1
2023-05-21T19:35:38.084Z,21.1
2023-05-21T19:40:44.269Z,21.1
2023-05-21T19:45:50.268Z,20.9
2023-05-21T19:50:56.366Z,20.9
2023-05-21T19:56:02.477Z,20.9
2023-05-21T20:01:08.547Z,20.8
2023-05-21T20:06:14.673Z,20.7
2023-05-21T20:11:20.753Z,20.6
2023-05-21T20:16:26.838Z,20.5
2023-05-21T20:21:31.966Z,20.5
2023-05-21T20:26:38.050Z,20.4
2023-05-21T20:31:44.139Z,20.3
2023-05-21T20:36:50.231Z,20.1
2023-05-21T20:41:56.334Z,19.8
2023-05-21T20:47:02.418Z,19.6
2023-05-21T20:52:08.549Z,19.5
2023-05-21T21:02:20.693Z,19.2
2023-05-21T21:07:26.797Z,19.1
2023-05-21T21:12:33.030Z,19.2
2023-05-21T21:17:38.981Z,19.2
2023-05-21T21:22:45.068Z,19.1
2023-05-21T21:27:50.186Z,19.2
2023-05-21T21:32:56.272Z,19
2023-05-21T21:38:02.419Z,18.9
2023-05-21T21:43:08.494Z,18.8
2023-05-21T21:48:14.583Z,18.7
2023-05-21T21:53:20.700Z,18.6
2023-05-21T21:58:25.791Z,18.6
2023-05-21T22:03:31.896Z,18.6
2023-05-21T22:08:38.116Z,18.5
2023-05-21T22:13:44.083Z,18.3
2023-05-21T22:18:50.188Z,18.1
2023-05-21T22:23:56.289Z,18
2023-05-21T22:29:02.377Z,17.8
2023-05-21T22:34:08.481Z,17.7
2023-05-21T22:44:20.668Z,17.6
2023-05-21T22:49:26.755Z,17.6
2023-05-21T22:54:32.861Z,17.5
2023-05-21T22:59:38.966Z,17.4
2023-05-21T23:04:44.080Z,17.4
2023-05-21T23:09:50.200Z,17.3
2023-05-21T23:14:56.272Z,17.4
2023-05-21T23:20:02.387Z,17.4
2023-05-21T23:25:08.524Z,17.4
2023-05-21T23:30:14.578Z,17.4
2023-05-21T23:35:20.640Z,17.3
2023-05-21T23:40:26.783Z,17.3
2023-05-21T23:45:32.862Z,17.2
2023-05-21T23:50:39.035Z,17.1
2023-05-21T23:55:45.019Z,17
